Time;durP1;ratioP1;P1;durP2;ratioP2;P2;SDS_P1;SDS_P2;PMS_P1;PMS_P2;Temp;Humidity;BMP_temperature;BMP_pressure;BME280_temperature;BME280_humidity;BME280_pressure;Samples;Min_cycle;Max_cycle;Signal;HPM_P1;HPM_P2
2022/02/13 00:00:11;;;;;;;9.00;5.75;;;;;;;4.90;100.00;101901.19;4976026;28;20046;-67
2022/02/13 00:02:38;;;;;;;9.25;5.20;;;;;;;4.82;100.00;101887.53;4993288;28;20054;-67
2022/02/13 00:05:04;;;;;;;8.13;4.82;;;;;;;4.97;100.00;101921.53;4975929;28;20034;-67
2022/02/13 00:07:30;;;;;;;9.52;5.20;;;;;;;4.45;100.00;101870.63;4992276;28;20026;-67
2022/02/13 00:09:56;;;;;;;8.32;4.65;;;;;;;4.77;100.00;101922.72;4976160;28;20065;-67
2022/02/13 00:12:21;;;;;;;7.85;4.88;;;;;;;4.79;100.00;101923.63;4993219;28;20116;-67
2022/02/13 00:14:47;;;;;;;6.90;4.30;;;;;;;4.63;100.00;101890.41;4993619;28;20034;-68
2022/02/13 00:17:12;;;;;;;7.35;4.82;;;;;;;4.70;100.00;101918.31;4975424;28;20026;-67
2022/02/13 00:19:37;;;;;;;8.55;4.80;;;;;;;4.89;100.00;101923.00;4993379;28;20034;-67
2022/02/13 00:22:03;;;;;;;7.28;4.80;;;;;;;4.78;100.00;101921.03;4993017;28;20038;-67
2022/02/13 00:24:30;;;;;;;11.75;5.20;;;;;;;4.75;100.00;101911.75;4993131;28;20469;-67
2022/02/13 00:26:55;;;;;;;6.55;4.82;;;;;;;4.53;100.00;101889.31;4993133;28;20516;-67
2022/02/13 00:29:21;;;;;;;7.65;4.60;;;;;;;4.85;100.00;101916.19;4992966;28;20026;-67
2022/02/13 00:31:46;;;;;;;8.07;4.68;;;;;;;4.88;100.00;101913.75;4992697;28;20033;-67
2022/02/13 00:34:12;;;;;;;8.15;4.72;;;;;;;4.80;100.00;101917.75;4991694;28;20089;-67
2022/02/13 00:36:37;;;;;;;7.40;4.68;;;;;;;4.72;100.00;101886.47;4975533;28;20034;-67
2022/02/13 00:39:03;;;;;;;7.63;5.15;;;;;;;4.77;100.00;101895.00;4992605;28;20030;-66
2022/02/13 00:41:28;;;;;;;8.57;5.40;;;;;;;4.67;100.00;101900.59;4975208;28;20423;-67
2022/02/13 00:43:54;;;;;;;8.73;5.22;;;;;;;4.81;100.00;101918.59;4992616;28;20027;-67
2022/02/13 00:46:20;;;;;;;8.50;5.63;;;;;;;4.70;100.00;101872.09;4974786;28;20035;-67
2022/02/13 00:48:45;;;;;;;7.60;5.30;;;;;;;4.68;100.00;101907.34;4992565;28;20563;-67
2022/02/13 00:51:11;;;;;;;9.63;5.90;;;;;;;4.70;100.00;101897.28;4991394;28;20077;-67
2022/02/13 00:53:36;;;;;;;7.50;5.55;;;;;;;4.90;100.00;101901.19;4991443;28;20544;-66
2022/02/13 00:56:01;;;;;;;8.32;5.25;;;;;;;4.66;100.00;101895.50;4975156;28;20034;-67
2022/02/13 00:58:28;;;;;;;9.20;5.10;;;;;;;4.48;100.00;101863.13;4991115;28;20401;-67
2022/02/13 01:03:29;;;;;;;9.70;4.93;;;;;;;4.83;100.00;101887.56;3985509;26;9999816;-66
2022/02/13 01:05:54;;;;;;;8.27;5.10;;;;;;;4.27;100.00;101824.81;4992416;28;20038;-66
2022/02/13 01:08:20;;;;;;;7.78;4.90;;;;;;;4.49;100.00;101874.94;4994558;28;20027;-66
2022/02/13 01:10:45;;;;;;;10.02;5.18;;;;;;;4.71;100.00;101878.88;5011642;28;20057;-67
2022/02/13 01:13:10;;;;;;;9.73;5.47;;;;;;;4.51;100.00;101855.69;5011697;28;20095;-66
2022/02/13 01:15:36;;;;;;;8.07;4.85;;;;;;;4.22;100.00;101816.25;4993725;28;20416;-66
2022/02/13 01:18:02;;;;;;;9.57;4.82;;;;;;;4.62;100.00;101871.91;4993687;28;20483;-67
2022/02/13 01:20:27;;;;;;;7.75;5.18;;;;;;;4.19;100.00;101811.16;5011507;28;20558;-66
2022/02/13 01:22:52;;;;;;;10.52;5.55;;;;;;;4.48;100.00;101863.13;5011161;28;20042;-67
2022/02/13 01:25:18;;;;;;;8.70;4.70;;;;;;;3.95;100.00;101815.50;5011874;28;20038;-67
2022/02/13 01:27:43;;;;;;;7.78;5.22;;;;;;;4.06;100.00;101809.94;5010653;28;20034;-66
2022/02/13 01:30:09;;;;;;;7.50;4.90;;;;;;;3.91;100.00;101819.59;4993148;28;20511;-66
2022/02/13 01:32:35;;;;;;;9.55;4.75;;;;;;;4.20;100.00;101853.97;5011646;28;20034;-66
2022/02/13 01:35:00;;;;;;;8.52;5.03;;;;;;;4.30;100.00;101847.53;4993450;28;20060;-65
2022/02/13 01:37:26;;;;;;;8.13;5.00;;;;;;;4.14;100.00;101855.47;5011012;28;20060;-66
2022/02/13 01:39:51;;;;;;;10.35;4.97;;;;;;;4.14;100.00;101790.88;4993598;28;20054;-66
2022/02/13 01:42:17;;;;;;;10.05;4.65;;;;;;;4.07;100.00;101814.19;4993018;28;20037;-66
2022/02/13 01:44:42;;;;;;;9.63;4.70;;;;;;;4.30;100.00;101848.38;5010845;28;20060;-65
2022/02/13 01:47:08;;;;;;;11.85;5.18;;;;;;;4.25;100.00;101806.28;5010812;28;20112;-65
2022/02/13 01:49:34;;;;;;;11.25;4.93;;;;;;;4.11;100.00;101848.69;4992111;28;20535;-65
2022/02/13 01:52:02;;;;;;;8.50;4.50;;;;;;;3.88;100.00;101796.84;4991113;28;20113;-65
2022/02/13 01:54:28;;;;;;;8.60;4.70;;;;;;;4.01;100.00;101846.72;4973852;28;20041;-66
2022/02/13 01:56:53;;;;;;;7.60;4.68;;;;;;;4.12;100.00;101835.28;4973670;28;20030;-65
2022/02/13 01:59:19;;;;;;;8.38;4.70;;;;;;;3.92;100.00;101790.25;4991502;28;20038;-65
2022/02/13 02:01:44;;;;;;;8.02;4.60;;;;;;;4.13;100.00;101838.66;4990806;28;20131;-65
2022/02/13 02:04:11;;;;;;;6.57;4.30;;;;;;;4.31;100.00;101826.59;4991423;28;20038;-65
2022/02/13 02:06:36;;;;;;;10.43;4.80;;;;;;;3.53;100.00;101760.66;4991345;28;20031;-65
2022/02/13 02:09:06;;;;;;;8.05;4.80;;;;;;;3.91;100.00;101827.13;4990956;28;20037;-65
2022/02/13 02:11:32;;;;;;;7.38;5.15;;;;;;;4.07;100.00;101828.41;4973700;28;20522;-65
2022/02/13 02:13:57;;;;;;;6.75;4.72;;;;;;;3.93;100.00;101835.59;4991298;28;20031;-66
2022/02/13 02:16:23;;;;;;;9.02;5.00;;;;;;;4.00;100.00;101834.09;4990782;28;20044;-66
2022/02/13 02:18:49;;;;;;;10.63;5.30;;;;;;;3.88;100.00;101803.56;4987166;28;20048;-65
2022/02/13 02:21:15;;;;;;;9.50;5.30;;;;;;;3.92;100.00;101805.34;4991345;28;20045;-65
2022/02/13 02:23:40;;;;;;;7.88;5.13;;;;;;;4.00;100.00;101831.59;4991180;28;20034;-65
2022/02/13 02:26:07;;;;;;;8.90;5.07;;;;;;;3.49;100.00;101748.78;4973394;28;20031;-65
2022/02/13 02:28:33;;;;;;;9.18;5.10;;;;;;;4.01;100.00;101790.50;4989815;28;20026;-65
2022/02/13 02:30:58;;;;;;;11.30;5.47;;;;;;;3.84;100.00;101811.84;4998044;28;20121;-65
2022/02/13 02:33:24;;;;;;;8.95;5.25;;;;;;;3.82;100.00;101844.50;5010798;28;20029;-65
2022/02/13 02:35:49;;;;;;;7.97;4.78;;;;;;;3.74;100.00;101788.09;5010570;28;20037;-65
2022/02/13 02:38:16;;;;;;;10.55;5.32;;;;;;;3.90;100.00;101837.16;5010431;28;20034;-65
2022/02/13 02:40:42;;;;;;;7.75;4.90;;;;;;;4.03;100.00;101841.72;4996114;28;20485;-65
2022/02/13 02:43:08;;;;;;;7.35;4.80;;;;;;;3.61;100.00;101798.56;5014641;28;20038;-65
2022/02/13 02:45:34;;;;;;;7.50;4.38;;;;;;;3.67;100.00;101782.81;5014311;28;20030;-65
2022/02/13 02:47:59;;;;;;;8.98;4.85;;;;;;;3.98;100.00;101831.53;4997126;28;20034;-65
2022/02/13 02:50:25;;;;;;;11.65;4.70;;;;;;;3.58;100.00;101790.97;5014510;28;20064;-65
2022/02/13 02:52:50;;;;;;;8.10;4.72;;;;;;;3.97;100.00;101837.38;4993734;28;20112;-64
2022/02/13 02:55:16;;;;;;;8.30;5.35;;;;;;;3.77;100.00;101780.63;4996468;28;20033;-65
2022/02/13 02:57:42;;;;;;;8.82;5.03;;;;;;;4.13;100.00;101851.25;5014527;28;20029;-65
2022/02/13 03:00:08;;;;;;;8.02;4.82;;;;;;;4.01;100.00;101830.75;5014388;28;20037;-65
2022/02/13 03:02:35;;;;;;;8.30;4.78;;;;;;;3.80;100.00;101794.94;5013560;28;20554;-65
2022/02/13 03:05:01;;;;;;;10.90;5.38;;;;;;;3.59;100.00;101806.88;5012929;28;20034;-66
2022/02/13 03:07:27;;;;;;;7.47;4.85;;;;;;;3.37;100.00;101753.47;5012644;28;20068;-65
2022/02/13 03:09:52;;;;;;;6.85;4.70;;;;;;;4.02;100.00;101837.53;4995059;28;20057;-65
2022/02/13 03:12:18;;;;;;;7.13;4.75;;;;;;;4.16;100.00;101849.66;4995176;28;20554;-65
2022/02/13 03:14:44;;;;;;;9.02;4.85;;;;;;;3.69;100.00;101834.00;5012377;28;20036;-65
2022/02/13 03:17:09;;;;;;;7.88;4.85;;;;;;;3.82;100.00;101789.16;5012558;28;20030;-64
2022/02/13 03:19:36;;;;;;;8.85;5.70;;;;;;;3.99;100.00;101795.50;5012468;28;20034;-65
2022/02/13 03:22:02;;;;;;;18.27;9.27;;;;;;;3.55;100.00;101816.00;5012493;28;20030;-65
2022/02/13 03:24:27;;;;;;;21.70;10.40;;;;;;;3.77;100.00;101800.72;5012316;28;20116;-65
2022/02/13 03:26:53;;;;;;;18.50;10.43;;;;;;;3.82;100.00;101800.88;4994949;28;20385;-65
2022/02/13 03:29:18;;;;;;;27.13;14.65;;;;;;;3.99;100.00;101842.44;5012183;28;20517;-65
2022/02/13 03:31:44;;;;;;;20.92;10.10;;;;;;;3.60;100.00;101816.13;4994757;28;20038;-64
2022/02/13 03:34:09;;;;;;;9.93;5.82;;;;;;;4.14;100.00;101847.94;4994588;28;20129;-65
2022/02/13 03:36:36;;;;;;;8.68;5.25;;;;;;;3.82;100.00;101851.19;4994611;28;20036;-65
2022/02/13 03:39:04;;;;;;;7.57;4.80;;;;;;;3.86;100.00;101855.50;4994907;28;20042;-66
2022/02/13 03:41:29;;;;;;;7.82;4.63;;;;;;;3.55;100.00;101763.19;5012463;28;20066;-65
2022/02/13 03:43:54;;;;;;;7.03;4.72;;;;;;;3.54;100.00;101784.13;5012469;28;20058;-65
2022/02/13 03:46:20;;;;;;;9.50;4.97;;;;;;;3.85;100.00;101858.81;5012073;28;20022;-65
2022/02/13 03:48:45;;;;;;;7.07;4.25;;;;;;;3.91;100.00;101852.28;4994569;28;20405;-65
2022/02/13 03:51:11;;;;;;;6.28;4.07;;;;;;;3.85;100.00;101859.66;4993935;28;20458;-65
2022/02/13 03:53:36;;;;;;;6.78;4.20;;;;;;;4.02;100.00;101855.97;4994052;28;20034;-65
2022/02/13 03:56:02;;;;;;;8.00;4.30;;;;;;;3.87;100.00;101860.56;4994626;28;20124;-65
2022/02/13 03:58:27;;;;;;;8.32;4.60;;;;;;;4.00;100.00;101819.84;5012108;28;20029;-65
2022/02/13 04:00:53;;;;;;;9.20;4.20;;;;;;;3.67;100.00;101765.22;4994272;28;20029;-65
2022/02/13 04:03:18;;;;;;;9.35;5.10;;;;;;;3.40;100.00;101806.34;4973052;28;1150988;-65
2022/02/13 04:05:44;;;;;;;6.88;4.57;;;;;;;3.70;100.00;101798.00;5012860;28;20124;-65
2022/02/13 04:08:09;;;;;;;9.40;5.05;;;;;;;3.82;100.00;101813.44;5012551;28;20121;-66
2022/02/13 04:10:35;;;;;;;9.23;5.38;;;;;;;3.81;100.00;101862.88;5013305;28;20026;-66
2022/02/13 04:13:01;;;;;;;8.80;5.28;;;;;;;3.80;100.00;101853.66;4995643;28;20098;-65
2022/02/13 04:15:26;;;;;;;8.55;5.30;;;;;;;3.67;100.00;101833.09;4995145;28;20072;-66
2022/02/13 04:17:53;;;;;;;8.88;5.28;;;;;;;3.96;100.00;101862.50;5013205;28;20041;-66
2022/02/13 04:20:20;;;;;;;8.32;5.40;;;;;;;3.91;100.00;101814.56;4995064;28;20034;-65
2022/02/13 04:22:46;;;;;;;12.20;5.57;;;;;;;3.63;100.00;101828.78;4994414;28;20128;-66
2022/02/13 04:25:11;;;;;;;9.60;5.60;;;;;;;4.11;100.00;101842.81;4994857;28;20121;-65
2022/02/13 04:27:37;;;;;;;9.07;5.40;;;;;;;3.48;100.00;101814.97;4995107;28;20033;-66
2022/02/13 04:30:06;;;;;;;9.60;5.32;;;;;;;4.00;100.00;101851.72;4996249;28;20034;-65
2022/02/13 04:32:32;;;;;;;8.93;5.20;;;;;;;3.77;100.00;101812.44;4975685;28;20404;-65
2022/02/13 04:34:58;;;;;;;7.55;5.18;;;;;;;4.08;100.00;101855.31;4975382;28;20034;-65
2022/02/13 04:37:23;;;;;;;8.55;4.88;;;;;;;3.79;100.00;101773.09;4974809;28;20030;-65
2022/02/13 04:39:50;;;;;;;12.77;6.10;;;;;;;3.92;100.00;101815.41;4993225;28;20042;-66
2022/02/13 04:42:15;;;;;;;13.73;7.57;;;;;;;3.70;100.00;101830.69;4992609;28;20049;-65
2022/02/13 04:44:41;;;;;;;10.68;6.07;;;;;;;3.97;100.00;101834.00;4975155;28;20027;-65
2022/02/13 04:47:08;;;;;;;9.18;5.28;;;;;;;3.76;100.00;101804.06;4975147;28;20036;-65
2022/02/13 04:49:34;;;;;;;7.55;4.80;;;;;;;3.85;100.00;101808.50;4992653;28;20034;-65
2022/02/13 04:52:00;;;;;;;9.15;5.13;;;;;;;3.94;100.00;101808.78;4992144;28;20046;-65
2022/02/13 04:54:25;;;;;;;8.25;4.50;;;;;;;4.07;100.00;101848.56;4975295;28;20412;-65
2022/02/13 04:56:51;;;;;;;7.85;4.57;;;;;;;4.08;100.00;101855.31;4992483;28;20125;-65
2022/02/13 04:59:18;;;;;;;8.55;5.15;;;;;;;4.06;100.00;101809.13;4992227;28;20026;-65
2022/02/13 05:01:43;;;;;;;10.32;4.68;;;;;;;3.87;100.00;101809.38;4974130;28;20508;-65
2022/02/13 05:04:08;;;;;;;10.27;5.35;;;;;;;3.96;100.00;101814.69;4975258;28;20085;-65
2022/02/13 05:06:35;;;;;;;8.18;4.68;;;;;;;3.77;100.00;101770.56;4974338;28;20034;-65
2022/02/13 05:09:00;;;;;;;11.25;5.00;;;;;;;4.42;100.00;101862.97;4974823;28;20049;-65
2022/02/13 05:11:27;;;;;;;7.63;5.13;;;;;;;4.33;100.00;101842.59;4992263;28;20505;-64
2022/02/13 05:13:53;;;;;;;9.32;4.72;;;;;;;4.43;100.00;101849.56;4991803;28;20114;-65
2022/02/13 05:16:18;;;;;;;8.30;4.93;;;;;;;4.14;100.00;101795.09;4974641;28;20121;-65
2022/02/13 05:18:44;;;;;;;9.07;5.07;;;;;;;4.24;100.00;101819.66;4991903;28;20081;-65
2022/02/13 05:21:09;;;;;;;8.75;5.10;;;;;;;4.62;100.00;101864.34;4976059;28;20034;-66
2022/02/13 05:23:34;;;;;;;9.65;5.10;;;;;;;4.12;100.00;101821.88;5008977;28;20030;-65
2022/02/13 05:26:01;;;;;;;8.77;5.13;;;;;;;4.23;100.00;101828.03;4993908;28;20091;-66
2022/02/13 05:28:27;;;;;;;10.82;4.93;;;;;;;4.29;100.00;101871.88;5011405;28;20037;-66
2022/02/13 05:30:53;;;;;;;9.55;5.35;;;;;;;3.98;100.00;101833.22;4991820;28;20030;-66
2022/02/13 05:33:18;;;;;;;8.73;5.07;;;;;;;4.32;100.00;101853.44;5004680;28;20404;-66
2022/02/13 05:35:44;;;;;;;8.60;5.15;;;;;;;4.33;100.00;101825.81;5011221;28;20064;-66
2022/02/13 05:38:09;;;;;;;11.20;5.38;;;;;;;4.32;100.00;101853.44;5011457;28;20407;-66
2022/02/13 05:40:34;;;;;;;9.65;5.13;;;;;;;4.20;100.00;101826.28;5011809;28;20368;-67
2022/02/13 05:43:00;;;;;;;10.80;5.38;;;;;;;4.49;100.00;101882.47;5011243;28;20866;-67
2022/02/13 05:45:25;;;;;;;8.13;4.55;;;;;;;4.50;100.00;101883.34;4993437;28;20034;-67
2022/02/13 05:47:51;;;;;;;11.55;5.50;;;;;;;4.46;100.00;101879.03;4993776;28;20169;-65
2022/02/13 05:50:16;;;;;;;10.20;5.63;;;;;;;4.23;100.00;101830.56;5010766;28;20081;-66
2022/02/13 05:52:41;;;;;;;10.88;6.20;;;;;;;4.61;100.00;101881.94;5010860;28;20030;-66
2022/02/13 05:55:07;;;;;;;10.65;6.60;;;;;;;4.31;100.00;101796.38;4993557;28;20099;-67
2022/02/13 05:57:33;;;;;;;9.75;6.13;;;;;;;4.44;100.00;101846.22;5009828;28;20017;-66
2022/02/13 05:59:59;;;;;;;10.77;6.13;;;;;;;4.59;100.00;101869.31;5012681;28;20030;-66
2022/02/13 06:02:24;;;;;;;9.23;5.60;;;;;;;4.41;100.00;101863.78;5030425;28;20049;-65
2022/02/13 06:04:50;;;;;;;11.93;5.40;;;;;;;4.72;100.00;101880.56;5012811;28;20033;-67
2022/02/13 06:07:16;;;;;;;11.40;6.32;;;;;;;4.61;100.00;101880.28;5030235;28;20026;-65
2022/02/13 06:09:42;;;;;;;9.15;5.97;;;;;;;4.68;100.00;101877.09;5030645;28;20024;-68
2022/02/13 06:12:08;;;;;;;9.13;5.70;;;;;;;4.98;100.00;101877.06;5030365;28;20025;-65
2022/02/13 06:14:33;;;;;;;10.63;6.55;;;;;;;5.03;100.00;101888.13;5012526;28;20036;-65
2022/02/13 06:16:59;;;;;;;12.05;7.75;;;;;;;4.49;100.00;101799.38;5012534;28;20025;-64
2022/02/13 06:19:25;;;;;;;13.77;7.80;;;;;;;5.04;100.00;101884.75;5012466;28;20058;-64
2022/02/13 06:21:51;;;;;;;12.13;7.22;;;;;;;4.98;100.00;101862.78;5029929;28;20112;-64
2022/02/13 06:24:16;;;;;;;11.07;6.63;;;;;;;5.10;100.00;101872.31;5012704;28;20172;-64
2022/02/13 06:26:42;;;;;;;12.00;7.13;;;;;;;4.80;100.00;101839.66;5030700;28;20146;-64
2022/02/13 06:29:08;;;;;;;11.10;6.80;;;;;;;4.96;100.00;101846.78;5012671;28;20029;-64
2022/02/13 06:31:34;;;;;;;9.27;6.22;;;;;;;4.99;100.00;101848.53;5012581;28;20702;-63
2022/02/13 06:34:00;;;;;;;11.45;7.07;;;;;;;5.26;100.00;101877.78;5029920;28;20522;-65
2022/02/13 06:36:25;;;;;;;11.35;6.10;;;;;;;5.27;100.00;101876.94;5030294;28;20086;-64
2022/02/13 06:38:51;;;;;;;10.90;6.30;;;;;;;5.22;100.00;101882.69;5012370;28;20033;-64
2022/02/13 06:41:17;;;;;;;9.40;5.90;;;;;;;5.29;100.00;101882.03;5030123;28;20416;-67
2022/02/13 06:43:42;;;;;;;11.27;5.50;;;;;;;5.29;100.00;101870.28;5029811;28;20037;-64
2022/02/13 06:46:07;;;;;;;9.45;5.75;;;;;;;5.33;100.00;101877.94;5012287;28;20029;-65
2022/02/13 06:48:34;;;;;;;13.52;7.28;;;;;;;5.34;100.00;101867.88;5029929;28;20022;-65
2022/02/13 06:51:00;;;;;;;13.07;6.65;;;;;;;5.11;100.00;101821.94;5029769;28;20040;-65
2022/02/13 06:53:25;;;;;;;9.02;5.70;;;;;;;5.49;100.00;101864.84;5011927;28;20120;-64
2022/02/13 06:55:51;;;;;;;11.82;6.20;;;;;;;5.21;100.00;101828.91;5029787;28;20455;-64
2022/02/13 06:58:18;;;;;;;11.45;6.72;;;;;;;5.26;100.00;101817.28;5030135;28;20097;-65
2022/02/13 07:00:44;;;;;;;12.95;5.68;;;;;;;5.40;100.00;101796.53;5029886;28;20021;-64
2022/02/13 07:03:10;;;;;;;8.20;4.93;;;;;;;5.69;100.00;101868.66;5011751;28;20404;-65
2022/02/13 07:05:35;;;;;;;8.68;4.95;;;;;;;5.24;100.00;101834.03;5012153;28;20048;-66
2022/02/13 07:08:01;;;;;;;8.20;4.90;;;;;;;5.64;100.00;101876.16;5012009;28;20091;-64
2022/02/13 07:10:27;;;;;;;10.93;4.63;;;;;;;5.68;100.00;101869.50;5012139;28;20116;-63
2022/02/13 07:12:52;;;;;;;6.85;4.35;;;;;;;5.26;100.00;101761.81;5029711;28;20034;-63
2022/02/13 07:15:17;;;;;;;7.78;4.55;;;;;;;5.74;100.00;101867.97;5012065;28;20038;-65
2022/02/13 07:17:44;;;;;;;9.77;4.25;;;;;;;5.39;100.00;101800.72;5029825;28;20396;-63
2022/02/13 07:20:10;;;;;;;7.80;4.80;;;;;;;5.96;100.00;101866.78;5011858;28;20042;-63
2022/02/13 07:22:35;;;;;;;12.50;5.40;;;;;;;5.57;100.00;101816.28;5029678;28;20107;-65
2022/02/13 07:25:01;;;;;;;7.97;4.43;;;;;;;5.75;100.00;101816.69;5030506;28;20031;-65
2022/02/13 07:27:27;;;;;;;8.65;5.03;;;;;;;5.82;100.00;101817.66;5033241;28;20488;-64
2022/02/13 07:29:52;;;;;;;9.48;5.45;;;;;;;5.86;100.00;101806.84;5015626;28;20036;-65
2022/02/13 07:32:18;;;;;;;11.30;5.30;;;;;;;6.16;100.00;101809.97;5015339;28;20128;-65
2022/02/13 07:34:43;;;;;;;10.48;5.43;;;;;;;6.11;100.00;101857.88;5033144;28;20033;-68
2022/02/13 07:37:09;;;;;;;8.93;5.40;;;;;;;6.04;100.00;101861.06;5033405;28;20038;-64
2022/02/13 07:39:36;;;;;;;7.57;4.78;;;;;;;5.97;100.00;101855.84;5015311;28;20611;-65
2022/02/13 07:42:02;;;;;;;6.65;4.60;;;;;;;6.04;100.00;101847.63;5011653;28;20038;-65
2022/02/13 07:44:28;;;;;;;9.10;5.65;;;;;;;5.98;100.00;101802.06;5002315;28;20034;-66
2022/02/13 07:46:54;;;;;;;8.73;4.72;;;;;;;5.74;100.00;101784.72;4992566;28;20040;-66
2022/02/13 07:49:20;;;;;;;9.52;4.53;;;;;;;6.37;100.00;101858.38;4992099;28;20041;-65
2022/02/13 07:51:46;;;;;;;10.55;5.57;;;;;;;6.22;100.00;101847.13;4994023;28;20030;-67
2022/02/13 07:54:12;;;;;;;10.35;6.28;;;;;;;6.12;100.00;101809.06;4976222;28;20037;-65
2022/02/13 07:56:37;;;;;;;8.73;5.88;;;;;;;6.32;100.00;101841.44;4992388;28;20548;-66
2022/02/13 07:59:03;;;;;;;9.07;5.57;;;;;;;6.23;100.00;101788.22;4994246;28;20031;-65
2022/02/13 08:01:28;;;;;;;12.18;5.65;;;;;;;6.68;100.00;101848.00;4989324;28;20026;-66
2022/02/13 13:58:56;;;;;;;9.10;5.13;;;;;;;10.01;74.95;101362.31;4713744;27;10002228;-64
2022/02/13 14:01:21;;;;;;;7.18;5.00;;;;;;;9.41;81.81;101416.59;5064034;28;20040;-64
2022/02/13 14:03:46;;;;;;;9.13;5.20;;;;;;;9.03;90.18;101410.66;5053689;28;20037;-64
2022/02/13 14:06:12;;;;;;;7.55;4.45;;;;;;;8.27;94.44;101321.78;5042879;28;20716;-65
2022/02/13 14:08:37;;;;;;;10.40;5.40;;;;;;;9.47;91.67;101393.75;5060847;28;20029;-65
2022/02/13 14:11:03;;;;;;;6.70;3.60;;;;;;;9.63;85.25;101403.03;5063951;28;20032;-66
2022/02/13 14:13:28;;;;;;;7.75;4.13;;;;;;;8.73;89.74;101341.28;5063276;28;20448;-65
2022/02/13 14:15:54;;;;;;;11.80;6.30;;;;;;;9.36;93.37;101406.47;5062366;28;20033;-65
2022/02/13 14:18:19;;;;;;;8.80;5.43;;;;;;;8.82;91.48;101373.44;5057423;28;20065;-65
2022/02/13 14:20:45;;;;;;;7.90;4.60;;;;;;;8.51;90.04;101357.31;5058547;28;20029;-65
2022/02/13 14:23:10;;;;;;;10.13;5.50;;;;;;;8.58;91.03;101386.91;5061771;28;20028;-64
2022/02/13 14:25:36;;;;;;;11.10;6.03;;;;;;;8.83;92.87;101414.84;5062025;28;20029;-67
2022/02/13 14:28:02;;;;;;;10.25;5.03;;;;;;;9.57;92.73;101392.88;5062925;28;20527;-66
2022/02/13 14:30:28;;;;;;;7.28;4.95;;;;;;;10.01;84.44;101352.16;5062260;28;20029;-64
2022/02/13 14:32:53;;;;;;;11.38;7.68;;;;;;;9.52;88.18;101346.38;5057108;28;20242;-64
2022/02/13 14:35:19;;;;;;;19.15;11.30;;;;;;;9.61;91.00;101354.81;5044892;28;20037;-65
2022/02/13 14:37:45;;;;;;;7.88;4.47;;;;;;;9.96;91.43;101399.59;5054738;28;20044;-65
2022/02/13 14:40:12;;;;;;;10.73;5.53;;;;;;;9.79;93.80;101364.06;5045495;28;20037;-66
2022/02/13 14:42:38;;;;;;;6.72;4.00;;;;;;;8.72;98.29;101321.88;5042636;28;20781;-64
2022/02/13 14:45:04;;;;;;;6.70;3.65;;;;;;;9.24;99.76;101352.31;5042436;28;20051;-65
2022/02/13 14:47:29;;;;;;;6.78;4.22;;;;;;;9.57;99.46;101395.44;5043456;28;20394;-64
2022/02/13 14:49:55;;;;;;;8.82;5.00;;;;;;;8.35;100.00;101406.25;5041511;28;20097;-65
2022/02/13 14:52:21;;;;;;;9.27;4.78;;;;;;;9.03;100.00;101391.19;5043124;28;20025;-64
2022/02/13 14:54:47;;;;;;;10.82;5.40;;;;;;;9.34;100.00;101400.53;5042929;28;20066;-64
2022/02/13 14:57:14;;;;;;;9.07;4.68;;;;;;;9.47;100.00;101393.75;5042971;28;20057;-64
2022/02/13 14:59:39;;;;;;;10.02;4.97;;;;;;;9.43;100.00;101403.06;5043126;28;20121;-64
2022/02/13 15:02:05;;;;;;;10.55;6.15;;;;;;;9.06;100.00;101386.13;5042446;28;20128;-65
2022/02/13 15:04:30;;;;;;;8.73;5.80;;;;;;;8.50;100.00;101279.59;5043201;28;20053;-67
2022/02/13 15:06:56;;;;;;;13.55;8.00;;;;;;;9.20;100.00;101398.81;5042707;28;20040;-64
2022/02/13 15:09:23;;;;;;;11.32;6.40;;;;;;;7.99;100.00;101331.75;5043758;28;20091;-65
2022/02/13 15:11:48;;;;;;;9.82;6.65;;;;;;;8.15;100.00;101399.34;5042745;28;20090;-66
2022/02/13 15:14:14;;;;;;;8.88;5.30;;;;;;;7.39;100.00;101345.75;5046979;28;20040;-65
2022/02/13 15:16:40;;;;;;;9.85;5.97;;;;;;;7.35;100.00;101356.69;5042100;28;20731;-63
2022/02/13 15:19:07;;;;;;;8.55;4.90;;;;;;;7.45;100.00;101383.75;5028388;28;20496;-65
2022/02/13 15:21:33;;;;;;;10.40;6.15;;;;;;;7.05;100.00;101337.91;5027969;28;20112;-65
2022/02/13 15:23:58;;;;;;;16.38;9.40;;;;;;;7.03;100.00;101353.06;5027229;28;20567;-66
2022/02/13 15:26:24;;;;;;;8.82;6.38;;;;;;;7.12;100.00;101421.41;5028192;28;20773;-65
2022/02/13 15:28:50;;;;;;;13.00;8.70;;;;;;;6.74;100.00;101349.41;5028289;28;20022;-66
2022/02/13 15:31:15;;;;;;;13.30;9.23;;;;;;;6.91;100.00;101399.28;5035999;28;20423;-67
2022/02/13 15:33:40;;;;;;;11.05;5.90;;;;;;;6.75;100.00;101401.66;5048195;28;20068;-66
2022/02/13 15:36:06;;;;;;;8.60;5.38;;;;;;;6.32;100.00;101343.94;5047969;28;20410;-66
2022/02/13 15:38:31;;;;;;;9.90;5.85;;;;;;;6.54;100.00;101412.38;5054996;28;20443;-66
2022/02/13 15:40:57;;;;;;;11.55;6.20;;;;;;;6.12;100.00;101347.06;5068828;28;20457;-67
2022/02/13 15:43:22;;;;;;;21.33;11.48;;;;;;;6.42;100.00;101409.69;5068623;28;20563;-67
2022/02/13 15:45:48;;;;;;;10.18;6.55;;;;;;;6.36;100.00;101414.69;5068580;28;20017;-67
2022/02/13 15:48:13;;;;;;;13.95;8.73;;;;;;;6.26;100.00;101414.56;5067479;28;20039;-67
2022/02/13 15:50:42;;;;;;;15.07;8.23;;;;;;;6.22;100.00;101411.13;5045802;28;20029;-67
2022/02/13 15:53:07;;;;;;;17.60;10.90;;;;;;;6.02;100.00;101394.91;5028987;28;20540;-66
2022/02/13 15:55:33;;;;;;;18.55;13.32;;;;;;;6.15;100.00;101406.84;5029896;28;20033;-69
2022/02/13 15:57:59;;;;;;;17.67;12.68;;;;;;;6.05;100.00;101399.97;5027022;28;20110;-69
2022/02/13 16:00:24;;;;;;;18.13;11.20;;;;;;;5.53;100.00;101352.97;5036436;28;20033;-68
2022/02/13 16:02:50;;;;;;;12.80;9.23;;;;;;;5.69;100.00;101389.34;5047990;28;20093;-68
2022/02/13 16:05:15;;;;;;;12.25;8.02;;;;;;;5.51;100.00;101371.41;5048461;28;20052;-66
2022/02/13 16:07:42;;;;;;;20.38;12.48;;;;;;;5.26;100.00;101329.84;5048789;28;20400;-68
2022/02/13 16:10:09;;;;;;;18.05;11.48;;;;;;;5.25;100.00;101340.75;5048403;28;20036;-67
2022/02/13 16:12:35;;;;;;;19.10;11.40;;;;;;;5.39;100.00;101338.47;5047581;28;20025;-69
2022/02/13 16:15:00;;;;;;;30.73;18.92;;;;;;;5.39;100.00;101399.81;5048119;28;20516;-69
2022/02/13 16:17:26;;;;;;;20.38;12.35;;;;;;;5.63;100.00;101424.56;5047057;28;20207;-68
2022/02/13 16:19:51;;;;;;;17.83;9.48;;;;;;;4.94;100.00;101347.00;5047579;28;20032;-66
2022/02/13 16:22:17;;;;;;;16.65;12.30;;;;;;;5.64;100.00;101436.34;5047680;28;20748;-66
2022/02/13 16:24:42;;;;;;;20.55;13.48;;;;;;;5.65;100.00;101431.34;5047408;28;20029;-66
2022/02/13 16:27:08;;;;;;;20.55;13.25;;;;;;;5.52;100.00;101370.59;5047551;28;20044;-67
2022/02/13 16:29:35;;;;;;;25.83;18.40;;;;;;;5.85;100.00;101419.91;5048013;28;20249;-67
2022/02/13 16:32:01;;;;;;;21.08;14.05;;;;;;;5.31;100.00;101372.81;5046642;28;20037;-67
2022/02/13 16:34:27;;;;;;;29.92;20.00;;;;;;;5.62;100.00;101433.81;5046701;28;20071;-67
2022/02/13 16:36:55;;;;;;;27.10;18.23;;;;;;;5.52;100.00;101429.47;5048076;28;20036;-67
2022/02/13 16:39:21;;;;;;;19.40;10.77;;;;;;;5.07;100.00;101361.47;5061879;28;20395;-66
2022/02/13 16:41:46;;;;;;;21.70;12.20;;;;;;;5.47;100.00;101420.94;5067442;28;20054;-66
2022/02/13 16:44:13;;;;;;;23.08;15.38;;;;;;;5.56;100.00;101430.34;5067754;28;20657;-66
2022/02/13 16:46:39;;;;;;;26.52;17.20;;;;;;;5.58;100.00;101433.75;5067975;28;20028;-65
2022/02/13 16:49:05;;;;;;;32.75;20.80;;;;;;;5.51;100.00;101414.28;5067303;28;20482;-67
2022/02/13 16:51:31;;;;;;;31.25;18.77;;;;;;;5.35;100.00;101443.44;5067978;28;20079;-66
2022/02/13 16:53:57;;;;;;;24.80;15.27;;;;;;;5.38;100.00;101428.38;5068170;28;20091;-67
2022/02/13 16:56:24;;;;;;;22.05;14.23;;;;;;;5.19;100.00;101442.34;5067659;28;20028;-67
2022/02/13 16:58:51;;;;;;;24.10;12.65;;;;;;;4.53;100.00;101337.88;5066097;28;20048;-67
2022/02/13 17:01:17;;;;;;;17.38;11.10;;;;;;;5.22;100.00;101444.06;5067335;28;20651;-67
2022/02/13 17:03:43;;;;;;;15.85;10.10;;;;;;;4.81;100.00;101372.81;5067268;28;20039;-66
2022/02/13 17:06:09;;;;;;;12.90;9.55;;;;;;;4.76;100.00;101403.75;5067695;28;20082;-66
2022/02/13 17:08:34;;;;;;;21.58;12.52;;;;;;;4.97;100.00;101404.97;5066241;28;20025;-66
2022/02/13 17:11:00;;;;;;;24.83;15.75;;;;;;;4.68;100.00;101320.50;5067713;28;20039;-66